Temporada 2024 · Etapa 12

British Grand Prix

2024-07-07 · Silverstone Circuito · UK · British Grand Prix · 52Lap · 306.198km
Mercedes 1:22:27.059
Red Bull +1.465
McLaren +7.547
Vitória de equipa 27pt P3 · P4
Volta mais rápida
1:28.293 · L52
Abandono
1
George Russell L33
Clima
16°/28°
média ar/pista · chuva · humidade 67%
Safety car
0
Acionamentos de SC/VSC
Uso de pneus Direção de prova
Storylines · This Grand Prix & circuit
Mais vitórias neste GP
Lewis Hamilton ativo 9 vitórias
Jim Clark 5 vitórias
Alain Prost 5 vitórias
Conversão pole-vitória 22/61 36.1%
Most DNFs · all-time P13
Most SC/VSC · all-time P1
Chegada mais apertada · all-time P34
Most lead changes · all-time P4
Circuito Info
Silverstone Circuito Silverstone, UK
52Lap 306.198km 61 corridas held (1950–) Recorde de volta 1:18.739 · Michael Schumacher (2004)
Recordes Watch · Active drivers ranked at this Grand Prix
P1 Lewis Hamilton 9 vitórias · GP #1
P8 Fernando Alonso 2 vitórias · → Michael Schumacher -1
P17 Charles Leclerc 1 vitórias · → Sebastian Vettel -1
P1 Fernando Alonso 23 largadas · GP #1
P2 Lewis Hamilton 20 largadas · → Fernando Alonso -3
P14 Nico Hülkenberg 14 largadas · → Sebastian Vettel -1
Corrida Trace · position by lap
largada parada SG 1 5 9 13 17 21 25 29 33 37 41 45 49 Hamilton · parada nos boxes L27 Hamilton · parada nos boxes L38 Hamilton HAM Hamilton HAM Verstappen · parada nos boxes L26 Verstappen · parada nos boxes L38 Verstappen VER Verstappen VER Norris · parada nos boxes L27 Norris · parada nos boxes L39 Norris NOR Norris NOR Piastri · parada nos boxes L28 Piastri · parada nos boxes L38 Piastri PIA Piastri PIA Sainz · parada nos boxes L26 Sainz · parada nos boxes L39 Sainz · parada nos boxes L50 Sainz SAI Sainz SAI Hülkenberg · parada nos boxes L26 Hülkenberg · parada nos boxes L39 Hülkenberg HUL Hülkenberg HUL Stroll · parada nos boxes L26 Stroll · parada nos boxes L39 Stroll STR Stroll STR Alonso · parada nos boxes L27 Alonso · parada nos boxes L38 Alonso ALO Alonso ALO Albon · parada nos boxes L27 Albon · parada nos boxes L38 Albon ALB Albon ALB Tsunoda · parada nos boxes L27 Tsunoda · parada nos boxes L38 Tsunoda TSU Tsunoda TSU Sargeant · parada nos boxes L27 Sargeant · parada nos boxes L38 Sargeant SAR Sargeant SAR Magnussen · parada nos boxes L27 Magnussen · parada nos boxes L37 Magnussen MAG Magnussen MAG Ricciardo · parada nos boxes L26 Ricciardo · parada nos boxes L37 Ricciardo RIC Ricciardo RIC Leclerc · parada nos boxes L19 Leclerc · parada nos boxes L27 Leclerc · parada nos boxes L37 Leclerc LEC Leclerc LEC Bottas · parada nos boxes L26 Bottas · parada nos boxes L37 Bottas BOT Bottas BOT Ocon · parada nos boxes L19 Ocon · parada nos boxes L21 Ocon · parada nos boxes L26 Ocon · parada nos boxes L38 Ocon OCO Ocon OCO Pérez · parada nos boxes L19 Pérez · parada nos boxes L28 Pérez · parada nos boxes L37 Pérez · parada nos boxes L47 Pérez PER Pérez PER Zhou · parada nos boxes L12 Zhou · parada nos boxes L19 Zhou · parada nos boxes L26 Zhou · parada nos boxes L37 Zhou ZHO Zhou ZHO Russell · parada nos boxes L27 Russell · abandono L33 Russell RUS Russell RUS Gasly · parou L0 · classificado P20 Gasly GAS Gasly GAS
parada nos boxes punição cumprida nos boxes SG Grelha de partida carro parado posição em cada volta (desde 1996)
PosPilotoTeamGrelhaVoltaTempo / StatusPontos
1 44 Lewis Hamilton Mercedes 2 52 1:22:27.059 25
2 1 Max Verstappen Red Bull 4 52 +1.465 18
3 4 Lando Norris McLaren 3 52 +7.547 15
4 81 Oscar Piastri McLaren 5 52 +12.429 12
5 55 Carlos Sainz FL Ferrari 7 52 +47.318 11
6 27 Nico Hülkenberg Haas F1 Team 6 52 +55.722 8
7 18 Lance Stroll Aston Martin 8 52 +56.569 6
8 14 Fernando Alonso Aston Martin 10 52 +1:03.577 4
9 23 Alexander Albon Williams 9 52 +1:08.387 2
10 22 Yuki Tsunoda RB F1 Team 13 52 +1:19.303 1
11 2 Logan Sargeant Williams 12 52 +1:28.960
12 20 Kevin Magnussen Haas F1 Team 17 52 +1:30.153
13 3 Daniel Ricciardo RB F1 Team 15 51 +9.937
14 16 Charles Leclerc Ferrari 11 51 +40.473
15 77 Valtteri Bottas Sauber 16 51 +41.821
16 31 Esteban Ocon Alpine F1 Team 18 50 +10.682
17 11 Sergio Pérez Red Bull 20 50 +18.005
18 24 Guanyu Zhou Sauber 14 50 +54.476
R 63 George Russell Mercedes 1 33 Retired
W 10 Pierre Gasly Alpine F1 Team 19 0 Did not start
PosPilotoTeamQ1Q2Q3Diferença para a pole
1 63 George Russell Mercedes 1:30.106 1:26.723 1:25.819 POLE Q3
2 44 Lewis Hamilton Mercedes 1:29.547 1:26.770 1:25.990 +0.171 Q3
3 4 Lando Norris McLaren 1:31.596 1:26.559 1:26.030 +0.211 Q3
4 1 Max Verstappen Red Bull 1:31.342 1:26.796 1:26.203 +0.384 Q3
5 81 Oscar Piastri McLaren 1:30.895 1:26.733 1:26.237 +0.418 Q3
6 27 Nico Hülkenberg Haas F1 Team 1:31.929 1:26.847 1:26.338 +0.519 Q3
7 55 Carlos Sainz Ferrari 1:30.557 1:26.843 1:26.509 +0.690 Q3
8 18 Lance Stroll Aston Martin 1:31.410 1:26.938 1:26.585 +0.766 Q3
9 23 Alexander Albon Williams 1:31.135 1:26.933 1:26.640 +0.821 Q3
10 14 Fernando Alonso Aston Martin 1:31.264 1:26.730 1:26.917 +0.911 Q2
11 16 Charles Leclerc Ferrari 1:30.496 1:27.097 +1.278 Q2
12 2 Logan Sargeant Williams 1:31.608 1:27.175 +1.356 Q2
13 22 Yuki Tsunoda RB F1 Team 1:30.994 1:27.269 +1.450 Q2
14 24 Guanyu Zhou Sauber 1:31.190 1:27.867 +2.048 Q2
15 3 Daniel Ricciardo RB F1 Team 1:31.291 1:27.949 +2.130 Q2
16 77 Valtteri Bottas Sauber 1:32.431 +6.612 Q1
17 20 Kevin Magnussen Haas F1 Team 1:32.905 +7.086 Q1
18 31 Esteban Ocon Alpine F1 Team 1:34.557 +8.738 Q1
19 11 Sergio Pérez Red Bull 1:38.348 +12.529 Q1
20 10 Pierre Gasly Alpine F1 Team 1:39.804 +13.985 Q1
Grelha de partida
Oficial
Final grid as classificado, including any saída dos boxes largadas. Source: Jolpica-F1. The arrow compares the grid slot with the a qualificação classification; hover a drop to see the stewards document behind it.
Sem dados desta sessão.
PosPilotoMelhor voltaDiferençaVoltas
1 4 Lando Norris 1:27.420 26
2 18 Lance Stroll 1:27.554 +0.134 22
3 81 Oscar Piastri 1:27.631 +0.211 18
4 1 Max Verstappen 1:27.729 +0.309 25
5 63 George Russell 1:27.738 +0.318 26
6 14 Fernando Alonso 1:27.794 +0.374 27
7 44 Lewis Hamilton 1:27.858 +0.438 26
8 16 Charles Leclerc 1:27.903 +0.483 26
9 55 Carlos Sainz 1:27.925 +0.505 27
10 31 Esteban Ocon 1:27.974 +0.554 24
11 27 Nico Hülkenberg 1:28.082 +0.662 22
12 77 Valtteri Bottas 1:28.254 +0.834 26
13 3 Daniel Ricciardo 1:28.477 +1.057 24
14 50 Oliver Bearman 1:28.536 +1.116 25
15 24 Guanyu Zhou 1:28.590 +1.170 24
16 23 Alexander Albon 1:28.649 +1.229 25
17 61 Jack Doohan 1:28.735 +1.315 22
18 43 Franco Colapinto 1:29.078 +1.658 24
19 6 Isack Hadjar 1:29.270 +1.850 15
20 22 Yuki Tsunoda 1:29.864 +2.444 5
Classified by best lap · source OpenF1 (2023+)
PosPilotoMelhor voltaDiferençaVoltas
1 4 Lando Norris 1:26.549 26
2 81 Oscar Piastri 1:26.880 +0.331 24
3 11 Sergio Pérez 1:26.983 +0.434 25
4 27 Nico Hülkenberg 1:26.990 +0.441 26
5 16 Charles Leclerc 1:27.150 +0.601 27
6 44 Lewis Hamilton 1:27.202 +0.653 26
7 1 Max Verstappen 1:27.233 +0.684 21
8 55 Carlos Sainz 1:27.249 +0.700 31
9 18 Lance Stroll 1:27.274 +0.725 21
10 63 George Russell 1:27.294 +0.745 26
11 14 Fernando Alonso 1:27.372 +0.823 25
12 77 Valtteri Bottas 1:27.381 +0.832 16
13 23 Alexander Albon 1:27.645 +1.096 26
14 10 Pierre Gasly 1:27.732 +1.183 24
15 31 Esteban Ocon 1:27.743 +1.194 19
16 22 Yuki Tsunoda 1:27.745 +1.196 26
17 2 Logan Sargeant 1:27.809 +1.260 24
18 24 Guanyu Zhou 1:27.813 +1.264 19
19 3 Daniel Ricciardo 1:27.916 +1.367 25
20 20 Kevin Magnussen 1:28.122 +1.573 20
Classified by best lap · source OpenF1 (2023+)
PosPilotoMelhor voltaDiferençaVoltas
1 81 Oscar Piastri 1:36.654 27
2 63 George Russell 1:37.529 +0.875 23
3 44 Lewis Hamilton 1:37.564 +0.910 28
4 4 Lando Norris 1:37.714 +1.060 20
5 55 Carlos Sainz 1:38.139 +1.485 23
6 1 Max Verstappen 1:38.393 +1.739 20
7 16 Charles Leclerc 1:38.454 +1.800 26
8 14 Fernando Alonso 1:38.940 +2.286 21
9 11 Sergio Pérez 1:39.284 +2.630 18
10 27 Nico Hülkenberg 1:39.340 +2.686 16
11 23 Alexander Albon 1:39.603 +2.949 24
12 18 Lance Stroll 1:39.700 +3.046 23
13 2 Logan Sargeant 1:39.702 +3.048 22
14 22 Yuki Tsunoda 1:39.820 +3.166 26
15 77 Valtteri Bottas 1:40.242 +3.588 22
16 31 Esteban Ocon 1:40.430 +3.776 25
17 20 Kevin Magnussen 1:40.539 +3.885 21
18 3 Daniel Ricciardo 1:40.823 +4.169 28
19 24 Guanyu Zhou 1:41.785 +5.131 23
20 10 Pierre Gasly 2
Classified by best lap · source OpenF1 (2023+)
#PilotoTempo de voltaVolta
1 55 Carlos Sainz 1:28.293 L52
2 81 Oscar Piastri 1:28.748 L51
3 1 Max Verstappen 1:28.952 L48
4 81 Oscar Piastri 1:29.049 L47
5 1 Max Verstappen 1:29.089 L52
6 1 Max Verstappen 1:29.105 L43
7 81 Oscar Piastri 1:29.124 L48
8 1 Max Verstappen 1:29.137 L45
9 81 Oscar Piastri 1:29.221 L44
10 81 Oscar Piastri 1:29.222 L45
Top 10 mais rápida race voltas — #1 is the mais rápida lap of a corrida(FL).
Pit stops · como se comparam
28s 30s 32s 34s mediana 29.3s Esteban Ocon · L21 · 28.276s Max Verstappen · L26 · 28.365s Sergio Pérez · L19 · 28.391s Charles Leclerc · L19 · 28.481s Esteban Ocon · L19 · 28.495s Lando Norris · L27 · 28.661s Carlos Sainz · L50 · 28.706s Sergio Pérez · L47 · 28.871s Daniel Ricciardo · L26 · 28.875s Lewis Hamilton · L27 · 28.929s Lance Stroll · L26 · 29.023s Max Verstappen · L38 · 29.076s Esteban Ocon · L38 · 29.086s Carlos Sainz · L39 · 29.097s Guanyu Zhou · L26 · 29.125s Charles Leclerc · L37 · 29.166s Guanyu Zhou · L12 · 29.178s Carlos Sainz · L26 · 29.199s Oscar Piastri · L38 · 29.200s Charles Leclerc · L27 · 29.233s Esteban Ocon · L26 · 29.289s Sergio Pérez · L37 · 29.300s Fernando Alonso · L27 · 29.341s Alexander Albon · L38 · 29.410s Nico Hülkenberg · L26 · 29.412s Logan Sargeant · L38 · 29.444s Lance Stroll · L39 · 29.469s Oscar Piastri · L28 · 29.541s Yuki Tsunoda · L38 · 29.658s Fernando Alonso · L38 · 29.686s Guanyu Zhou · L19 · 29.838s Daniel Ricciardo · L37 · 29.873s Kevin Magnussen · L37 · 29.884s Lewis Hamilton · L38 · 30.038s Nico Hülkenberg · L39 · 30.265s Kevin Magnussen · L27 · 30.308s Lando Norris · L39 · 30.387s Valtteri Bottas · L26 · 30.628s Valtteri Bottas · L37 · 31.527s George Russell · L27 · 32.045s Sergio Pérez · L28 · 32.313s Logan Sargeant · L27 · 32.801s Guanyu Zhou · L37 · 33.083s Alexander Albon · L27 · 34.742s
mais rápida 28.276s Esteban Ocon mais lenta 34.742s Alexander Albon tempo de passagem pelos boxes — um ponto por paragem
PilotoParagemVoltaTempoPassagem pela saída dos boxes
24 Guanyu Zhou 1 12 15:22:07 29.178s
16 Charles Leclerc 1 19 15:32:51 28.481s
11 Sergio Pérez 1 19 15:32:59 28.391s
31 Esteban Ocon 1 19 15:33:21 28.495s
24 Guanyu Zhou 2 19 15:33:46 29.838s
31 Esteban Ocon 2 21 15:37:02 28.276s
55 Carlos Sainz 1 26 15:43:42 29.199s
18 Lance Stroll 1 26 15:44:01 29.023s
77 Valtteri Bottas 1 26 15:44:42 30.628s
1 Max Verstappen 1 26 15:43:41 28.365s
3 Daniel Ricciardo 1 26 15:44:23 28.875s
27 Nico Hülkenberg 1 26 15:43:59 29.412s
24 Guanyu Zhou 3 26 15:46:39 29.125s
31 Esteban Ocon 3 26 15:45:57 29.289s
20 Kevin Magnussen 1 27 15:45:59 30.308s
4 Lando Norris 1 27 15:45:13 28.661s
22 Yuki Tsunoda 1 27 15:45:52
2 Logan Sargeant 1 27 15:46:01 32.801s
44 Lewis Hamilton 1 27 15:45:17 28.929s
23 Alexander Albon 1 27 15:45:53 34.742s
14 Fernando Alonso 1 27 15:45:51 29.341s
63 George Russell 1 27 15:45:20 32.045s
16 Charles Leclerc 2 27 15:47:17 29.233s
81 Oscar Piastri 1 28 15:47:12 29.541s
11 Sergio Pérez 2 28 15:49:13 32.313s
20 Kevin Magnussen 2 37 16:03:41 29.884s
3 Daniel Ricciardo 2 37 16:03:44 29.873s
77 Valtteri Bottas 2 37 16:04:05 31.527s
16 Charles Leclerc 3 37 16:04:40 29.166s
11 Sergio Pérez 3 37 16:04:59 29.300s
24 Guanyu Zhou 4 37 16:06:00 33.083s
2 Logan Sargeant 2 38 16:05:23 29.444s
1 Max Verstappen 2 38 16:04:14 29.076s
23 Alexander Albon 2 38 16:05:11 29.410s
14 Fernando Alonso 2 38 16:05:03 29.686s
81 Oscar Piastri 2 38 16:04:29 29.200s
44 Lewis Hamilton 2 38 16:04:09 30.038s
22 Yuki Tsunoda 2 38 16:05:07 29.658s
31 Esteban Ocon 4 38 16:06:52 29.086s
55 Carlos Sainz 2 39 16:06:06 29.097s
27 Nico Hülkenberg 2 39 16:06:28 30.265s
18 Lance Stroll 2 39 16:06:33 29.469s
4 Lando Norris 2 39 16:05:44 30.387s
11 Sergio Pérez 4 47 16:20:38 28.871s
55 Carlos Sainz 3 50 16:22:59 28.706s
paragens
SG 10 20 30 40 L52
44
2
M26
I11
S15
1
2
M25
I12
H15
4
2
M26
I12
S14·+2
81
2
M27
I10
M15
55
3
M25
I13
H11
S3·+3
27
2
M25
I13
S14·+3
18
2
M25
I13
M14
14
2
M26
I11
M15
23
2
M26
I11
M15
22
2
M26
I11
S15
2
2
M26
I11
S15
20
2
M26
I10
S16
3
2
M25
I11
S15
16
3
M18
I8
I10
S15
77
2
M25
I11
S15
31
4
S18
S2
M5
I12
M13
11
4
H18
I9
I9
M10
S4
24
4
S11
M7
I7
I11
S14·+1
63
1
M26
I7
10
0
M1
S Soft M Medium H Hard I Intermediate W Wet SC·VSC parada nos boxes punição cumprida nos boxes
Corrida · largura da barra = voltas com esse jogo, ·+N = montado usado com N voltas prévias · fonte OpenF1 (2023+)
Compostos indicados para este Grande Prémio
C1 Duro C2 Médio C3 Macio
A Pirelli indica três dos seus compostos secos para cada prova; quanto maior o número C, mais macio é o pneu. Documento da FIA ↗
Mais posições ganhas em pista
20
+9
P17→P12
81
+8
P5→P4
27
+8
P6→P6
18
+7
P8→P7
2
+7
P12→P11
11
+7
P20→P17
44
+5
P2→P1
55
+5
P7→P5
Mais posições perdidas
Charles Leclerc −10 Oscar Piastri −7 Lance Stroll −7
Corrida · Soma das posições ganhas em pista volta a volta — excluem-se a volta de largada e as voltas de boxes do próprio piloto. Dados de voltas de corrida desde 1996.
PilotoTipoVoltaCumpridaAplicadaMotivo
77 Valtteri Bottas Voltas deletadas 27 TRACK LIMITS (PIT)
Volta 27 TRACK LIMITS (PIT)
Volta = volta em que a punição foi aplicada · Cumprida = volta em que foi cumprida nos boxes (em branco: somada ao tempo de corrida)
Time, drive-through and stop-go penalties come from race control messages (OpenF1, 2023+). Grid penalties never appear there — the stewards publish them as documents after the session — so they are worked back from the starting grid against the a qualificação classification, which gives places actually lost rather than the figure written in the decision.
PilotoTipoVoltaCumpridaAplicadaMotivo
11 Sergio Pérez Pit lane start The following Power Unit elements have been usados: 5th Internal Combustion Motor (ICE) 3rd Energy Store (ES) 3rd Control Electronics (CE) All Power Unit elements were replaced without the approval of the FIA Technical Delegate during Parc Ferme. (Required to start the Corrida from the saída dos boxes.) Doc 43 ↗
The following Power Unit elements have been usados: 5th Internal Combustion Motor (ICE) 3rd Energy Store (ES) 3rd Control Electronics (CE) All Power Unit elements were replaced without the approval of the FIA Technical Delegate during Parc Ferme. (Required to start the Corrida from the saída dos boxes.) Doc 43 ↗
14 Fernando Alonso No further action Car 14 was worked on in the Fast Lane. (No penalty is applied.) Doc 35 ↗
Car 14 was worked on in the Fast Lane. (No penalty is applied.) Doc 35 ↗
18 Lance Stroll Advertência Crossed the Pit Exit line at 15:10:32 while the red light was on. (A penalty of a Advertência is imposed. This is the driver’s 2nd reprimand of the season.) Doc 34 ↗
Crossed the Pit Exit line at 15:10:32 while the red light was on. (A penalty of a Advertência is imposed. This is the driver’s 2nd reprimand of the season.) Doc 34 ↗
3 Daniel Ricciardo Voltas deletadas TRACK LIMITS (PIT)
TRACK LIMITS (PIT)
20 Kevin Magnussen Voltas deletadas TRACK LIMITS
TRACK LIMITS
14 Fernando Alonso Voltas deletadas TRACK LIMITS
TRACK LIMITS
Volta = volta em que a punição foi aplicada · Cumprida = volta em que foi cumprida nos boxes (em branco: somada ao tempo de corrida)
Time, drive-through and stop-go penalties come from race control messages (OpenF1, 2023+). Grid penalties never appear there — the stewards publish them as documents after the session — so they are worked back from the starting grid against the a qualificação classification, which gives places actually lost rather than the figure written in the decision.
PilotoTipoVoltaCumpridaAplicadaMotivo
3 Daniel Ricciardo Advertência Car 3 was weaving in the Pit Lane. (Advertência (Driving). This is the driver’s 1st reprimand of the season.) Doc 28 ↗
Car 3 was weaving in the Pit Lane. (Advertência (Driving). This is the driver’s 1st reprimand of the season.) Doc 28 ↗
Volta = volta em que a punição foi aplicada · Cumprida = volta em que foi cumprida nos boxes (em branco: somada ao tempo de corrida)
Time, drive-through and stop-go penalties come from race control messages (OpenF1, 2023+). Grid penalties never appear there — the stewards publish them as documents after the session — so they are worked back from the starting grid against the a qualificação classification, which gives places actually lost rather than the figure written in the decision.
PilotoTipoVoltaCumpridaAplicadaMotivo
10 Pierre Gasly Back of the grid The following Power Unit elements have been usados: 5th Internal Combustion Motor (ICE) 5th Turbo Charger (TC) 5th Motor Generator Unit - Heat (MGU-H) 5th Motor Generator Unit - Kinetic (MGU-K) 3rd Control Electronics (CE) (Required to start the Corrida from the back of the starting grid.) Doc 18 ↗
The following Power Unit elements have been usados: 5th Internal Combustion Motor (ICE) 5th Turbo Charger (TC) 5th Motor Generator Unit - Heat (MGU-H) 5th Motor Generator Unit - Kinetic (MGU-K) 3rd Control Electronics (CE) (Required to start the Corrida from the back of the starting grid.) Doc 18 ↗
18 Lance Stroll Black-and-white flag warning €15,000 Car 18 unnecessarily impeding Car 16 in turn 12. (Formal warning for the driver. The competitor (Aston Martin Aramco F1 Team) is fined €15,000.) Doc 20 ↗
€15,000 Car 18 unnecessarily impeding Car 16 in turn 12. (Formal warning for the driver. The competitor (Aston Martin Aramco F1 Team) is fined €15,000.) Doc 20 ↗
Volta = volta em que a punição foi aplicada · Cumprida = volta em que foi cumprida nos boxes (em branco: somada ao tempo de corrida)
Time, drive-through and stop-go penalties come from race control messages (OpenF1, 2023+). Grid penalties never appear there — the stewards publish them as documents after the session — so they are worked back from the starting grid against the a qualificação classification, which gives places actually lost rather than the figure written in the decision.
PilotoTipoVoltaCumpridaAplicadaMotivo
1 Max Verstappen Fine €100 Pit lane speeding – 80.5 km/h (The competitor (Oracle Red Bull Racing) is fined €100.) Doc 50 ↗
€100 Pit lane speeding – 80.5 km/h (The competitor (Oracle Red Bull Racing) is fined €100.) Doc 50 ↗
1 Max Verstappen Fine €100 Pit lane speeding – 80.4 km/h (The competitor (Oracle Red Bull Racing) is fined €100.) Doc 48 ↗
€100 Pit lane speeding – 80.4 km/h (The competitor (Oracle Red Bull Racing) is fined €100.) Doc 48 ↗
1 Max Verstappen Fine €100 Pit lane speeding – 80.4 km/h (The competitor (Oracle Red Bull Racing) is fined €100.) Doc 46 ↗
€100 Pit lane speeding – 80.4 km/h (The competitor (Oracle Red Bull Racing) is fined €100.) Doc 46 ↗
23 Alexander Albon Fine €100 Pit lane speeding – 80.2 km/h (The competitor (Williams Racing) is fined €100.) Doc 49 ↗
€100 Pit lane speeding – 80.2 km/h (The competitor (Williams Racing) is fined €100.) Doc 49 ↗
23 Alexander Albon Fine €100 Pit lane speeding – 80.3 km/h (The competitor (Williams Racing) is fined €100.) Doc 47 ↗
€100 Pit lane speeding – 80.3 km/h (The competitor (Williams Racing) is fined €100.) Doc 47 ↗
Volta = volta em que a punição foi aplicada · Cumprida = volta em que foi cumprida nos boxes (em branco: somada ao tempo de corrida)
Time, drive-through and stop-go penalties come from race control messages (OpenF1, 2023+). Grid penalties never appear there — the stewards publish them as documents after the session — so they are worked back from the starting grid against the a qualificação classification, which gives places actually lost rather than the figure written in the decision.
DocTítuloAssuntoPublished(CET)
1 Event Notes - Pirelli Preview ↗ 2024-07-03 15:01
2024-07-03 15:01 CET
2 Post-Corrida Checks on Car 81, Austrian GP 2024 ↗ 81 Oscar Piastri 2024-07-04 16:12
81 Oscar Piastri 2024-07-04 16:12 CET
3 Corrida Director's Event Notes ↗ 2024-07-04 16:13
2024-07-04 16:13 CET
4 Event Notes - Circuito Map, Pit Lane Drawing and Red Zones ↗ 2024-07-04 16:14
2024-07-04 16:14 CET
5 Car Display Procedure ↗ 2024-07-05 08:30
2024-07-05 08:30 CET
6 PU elements usados per driver up to now ↗ 2024-07-05 09:33
2024-07-05 09:33 CET
7 RNCs usados per driver up to now ↗ 2024-07-05 09:35
2024-07-05 09:35 CET
8 Self Scrutineering ↗ 2024-07-05 09:35
2024-07-05 09:35 CET
9 Car Presentation Submissions ↗ 2024-07-05 11:00
2024-07-05 11:00 CET
10 Entry List ↗ 2024-07-05 11:32
2024-07-05 11:32 CET
11 New PU elements for this Competition ↗ 2024-07-06 08:51
2024-07-06 08:51 CET
12 New RNCs for this Competition ↗ 2024-07-05 13:44
2024-07-05 13:44 CET
13 Summons - Car 37 - Alleged impeding of Car 4 ↗ Isack Hadjar #37 2024-07-05 14:52
Isack Hadjar #37 2024-07-05 14:52 CET
14 Summons - Car 4 - Alleged impeding by Car 37 ↗ 4 Lando Norris 2024-07-05 14:49
4 Lando Norris 2024-07-05 14:49 CET
15 Summons - Car 18 - Alleged impeding of Car 16 ↗ 18 Lance Stroll 2024-07-05 14:52
18 Lance Stroll 2024-07-05 14:52 CET
16 Summons - Car 16 - Alleged impeding by Car 18 ↗ 16 Charles Leclerc 2024-07-05 14:52
16 Charles Leclerc 2024-07-05 14:52 CET
17 P1 Classification ↗ 2024-07-05 14:57
2024-07-05 14:57 CET
18 Infringement - Car 10 - PU elements ↗ 10 Pierre Gasly 2024-07-05 16:16
10 Pierre Gasly 2024-07-05 16:16 CET
19 infringement - Car 37 - Impeding of Car 4 ↗ Isack Hadjar #37 2024-07-05 16:00
Isack Hadjar #37 2024-07-05 16:00 CET
20 infringement - Car 18 - Impeding of Car 16 ↗ 18 Lance Stroll 2024-07-05 16:00
18 Lance Stroll 2024-07-05 16:00 CET
21 P2 Classification ↗ 2024-07-05 18:16
2024-07-05 18:16 CET
22 Corrida Director's Note - SC2-SC1 Time ↗ 2024-07-05 20:25
2024-07-05 20:25 CET
23 P1 and P2 Scrutineering ↗ 2024-07-05 20:27
2024-07-05 20:27 CET
24 Summons - Car 3 - Alleged saída dos boxes incident ↗ 3 Daniel Ricciardo 2024-07-06 13:08
3 Daniel Ricciardo 2024-07-06 13:08 CET
25 Post-Classificação Procedure ↗ 2024-07-06 13:42
2024-07-06 13:42 CET
26 P3 Classification ↗ 2024-07-06 13:48
2024-07-06 13:48 CET
27 New RNCs for this Competition ↗ 2024-07-06 14:19
2024-07-06 14:19 CET
28 Infringement - Car 3 - Pit lane incident ↗ 3 Daniel Ricciardo 2024-07-06 14:24
3 Daniel Ricciardo 2024-07-06 14:24 CET
29 Summons - Car 18 - Red light at pit exit ↗ 18 Lance Stroll 2024-07-06 17:38
18 Lance Stroll 2024-07-06 17:38 CET
30 Summons - Car 14 - Alleged working in the fast lane ↗ 14 Fernando Alonso 2024-07-06 17:39
14 Fernando Alonso 2024-07-06 17:39 CET
31 Provisional Classificação Classification ↗ 2024-07-06 17:38
2024-07-06 17:38 CET
32 Infringement - Classificação Deleted Volta Times ↗ 2024-07-06 17:38
2024-07-06 17:38 CET
33 Decision - Classificação SC2-SC1 Times ↗ 2024-07-06 17:40
2024-07-06 17:40 CET
34 Infringement - Car 18 - Red light at pit exit ↗ 18 Lance Stroll 2024-07-06 18:40
18 Lance Stroll 2024-07-06 18:40 CET
35 Decision - Car 14 - Alleged working in the fast lane ↗ 14 Fernando Alonso 2024-07-06 18:40
14 Fernando Alonso 2024-07-06 18:40 CET
36 P3 and Classificação Scrutineering ↗ 2024-07-06 19:46
2024-07-06 19:46 CET
37 Final Classificação Classification ↗ 2024-07-06 20:00
2024-07-06 20:00 CET
38 Provisional Starting Grid ↗ 2024-07-06 20:01
2024-07-06 20:01 CET
39 Pre-Corrida Procedure ↗ 2024-07-07 11:33
2024-07-07 11:33 CET
40 Post-Corrida Procedure ↗ 2024-07-07 11:36
2024-07-07 11:36 CET
42 Parc Fermé Issues ↗ 2024-07-07 12:59
2024-07-07 12:59 CET
43 Infringement - Car 11 - Changes made during Parc Ferme ↗ 11 Sergio Pérez 2024-07-07 13:38
11 Sergio Pérez 2024-07-07 13:38 CET
44 Parts and Parameters been replaced and or changed during Parc Fermé ↗ 2024-07-07 13:56
2024-07-07 13:56 CET
45 Final Starting Grid ↗ 2024-07-07 14:00
2024-07-07 14:00 CET
46 Infringement - Car 1 - Pit Lane Speeding ↗ 1 Max Verstappen 2024-07-07 16:03
1 Max Verstappen 2024-07-07 16:03 CET
47 Infringement - Car 23 - Pit Lane Speeding ↗ 23 Alexander Albon 2024-07-07 16:00
23 Alexander Albon 2024-07-07 16:00 CET
48 Infringement - Car 1 - Pit Lane Speeding (Second) ↗ 1 Max Verstappen 2024-07-07 16:04
1 Max Verstappen 2024-07-07 16:04 CET
49 Infringement - Car 23 - Pit Lane Speeding (Second) ↗ 23 Alexander Albon 2024-07-07 16:00
23 Alexander Albon 2024-07-07 16:00 CET
50 Infringement - Car 1 - Pit Lane Speeding (Third) ↗ 1 Max Verstappen 2024-07-07 16:04
1 Max Verstappen 2024-07-07 16:04 CET
51 Infringement - Corrida Deleted Volta Times ↗ 2024-07-07 17:46
2024-07-07 17:46 CET
52 Provisional Corrida Classification ↗ 2024-07-07 17:46
2024-07-07 17:46 CET
53 Corrida Scrutineering ↗ 2024-07-07 20:28
2024-07-07 20:28 CET
54 Final Corrida Classification ↗ 2024-07-07 20:30
2024-07-07 20:30 CET
55 Campeonato Pontos ↗ 2024-07-07 20:37
2024-07-07 20:37 CET
FIA official decisions and documents (fia.com) · PDF original PDF links
Record Basis · Calculation basis
Corrida order is the final classification(post-race penalties applied) · a qualificação session data 2003+ · lap times 1996+ · pit stops 2012+ (pit-lane transit, not stationary time) · Abandono = Finished(Finished·+N Voltas) non-Finished statuses
Fontes de dados: Jolpica-F1 (Ergast compatible API) · weather·Direção de prova OpenF1 (2023+) · Last fetched: 2026-09-05 14:15